Aérodrome :
LOGIN :

S'inscrire | Disclaimer

   EN    FR    IT 

 










Légende :    VFR   VFR Marginal   IFR   IFR Intensif   IFR Très Intensif
Visi : 
Plafond : 
>= 8 km
>= 3000ft
5 à 8 km
1000 à 3000 ft
1500m à 5 km
500 à 1000 ft
800 à 1500m
200 à 500 ft
< 800m
< 200 ft
Symboles :   Orages  Brouillard  Fortes neiges  Fortes précipitations  Vent > 20 kt
SIGMETs :   Divers  Orages  Givrage  Turbulence  Onde Orograph.  Cendres Volcan.







- Altitude de l'aérodrome : 242 ft
- Code IATA : DUB


EIDW - Dublin

DERNIER METAR :
  • 132030Z 16015KT 120V190 9999 FEW018 BKN050 06/02 Q1016 WS RWY10 NOSIG

METARs EXPIRÉS :
  • 132000Z 16016KT 110V170 9999 FEW018 BKN050 05/02 Q1015 NOSIG
  • 131930Z 15018KT 9999 FEW016 SCT024 BKN050 05/02 Q1015 NOSIG
  • 131900Z 15015KT 9999 FEW016 SCT024 BKN050 06/02 Q1015 NOSIG
  • 131830Z 16017KT 9999 -RA FEW016 SCT024 BKN050 06/02 Q1015 NOSIG
  • 131800Z 15015KT 110V190 9999 FEW016 SCT024 BKN050 06/02 Q1014 NOSIG

TAF TAF EIDW
Valide du 13 à 18h jusqu'au 14 à 18h UTC


131700Z 1318/1418 15018KT 9999 FEW014 BKN025
PROB30
TEMPO 1318/1403 -RA BKN014
BECMG 1401/1403 15013KT
BECMG 1410/1412 15016G27KT
Pas de NOTAMs connus pour ce terrain.



MET'MAP, la Météo Aéronautique d'un coup d'oeil ! - Copyright ORBIFLY Décembre 2007 - Disclaimer

ORBIFLY MET'MAP TEAM :

Programmation & Développement : Alexandra Zaïnal
Conception & Développement : Baudouin d'Aumeries
Co-Programmation & Développement : Marc-Olivier Méhu
Soutien technique & logistique : Manuel Goepfert

Contact : metmap@orbifly.com




SOURCES & CREDITS :

   NOAA